createdAt,value
2023-04-21T00:01:23.099Z,4.96
2023-04-21T00:03:53.253Z,4.98
2023-04-21T00:06:23.031Z,4.95
2023-04-21T00:08:52.872Z,4.96
2023-04-21T00:11:19.664Z,4.91
2023-04-21T00:13:46.523Z,4.93
2023-04-21T00:16:13.113Z,4.92
2023-04-21T00:18:40.052Z,4.94
2023-04-21T00:21:06.640Z,4.94
2023-04-21T00:23:33.381Z,4.97
2023-04-21T00:26:02.665Z,4.95
2023-04-21T00:28:29.840Z,4.97
2023-04-21T00:30:58.015Z,4.98
2023-04-21T00:33:26.790Z,5.00
2023-04-21T00:35:57.278Z,4.98
2023-04-21T00:38:23.828Z,5.00
2023-04-21T00:40:50.704Z,4.97
2023-04-21T00:43:17.435Z,4.97
2023-04-21T00:45:46.940Z,5.00
2023-04-21T00:48:13.967Z,5.03
2023-04-21T00:50:41.257Z,5.00
2023-04-21T00:53:09.442Z,4.99
2023-04-21T00:55:36.365Z,4.95
2023-04-21T00:58:03.898Z,4.99
2023-04-21T01:00:30.891Z,4.99
2023-04-21T01:02:58.172Z,5.03
2023-04-21T01:05:25.156Z,5.01
2023-04-21T01:07:52.045Z,5.07
2023-04-21T01:10:18.702Z,5.01
2023-04-21T01:12:47.509Z,4.97
2023-04-21T01:15:16.070Z,4.97
2023-04-21T01:17:43.620Z,4.99
2023-04-21T01:20:14.101Z,5.00
2023-04-21T01:22:42.284Z,5.00
2023-04-21T01:25:09.299Z,4.98
2023-04-21T01:27:36.503Z,4.95
2023-04-21T01:30:04.302Z,5.01
2023-04-21T01:32:33.833Z,5.02
2023-04-21T01:35:01.598Z,5.07
2023-04-21T01:37:32.084Z,5.00
2023-04-21T01:40:01.188Z,4.99
2023-04-21T01:42:29.442Z,5.01
2023-04-21T01:44:58.430Z,5.01
2023-04-21T01:47:25.584Z,5.04
2023-04-21T01:49:52.952Z,5.03
2023-04-21T01:52:19.780Z,4.99
2023-04-21T01:54:46.598Z,5.03
2023-04-21T01:57:14.616Z,5.05
2023-04-21T01:59:41.356Z,5.05
2023-04-21T02:02:08.589Z,5.07
2023-04-21T02:04:35.801Z,5.01
2023-04-21T02:07:03.088Z,5.03
2023-04-21T02:09:29.702Z,5.04
2023-04-21T02:12:00.364Z,5.06
2023-04-21T02:14:28.034Z,5.00
2023-04-21T02:16:56.382Z,4.99
2023-04-21T02:19:23.924Z,4.92
2023-04-21T02:21:50.592Z,4.96
2023-04-21T02:24:17.333Z,4.95
2023-04-21T02:26:45.572Z,4.97
2023-04-21T02:29:12.733Z,4.92
2023-04-21T02:31:53.868Z,4.92
2023-04-21T02:34:24.326Z,4.95
2023-04-21T02:36:51.052Z,4.96
2023-04-21T02:39:19.330Z,4.94
2023-04-21T02:41:46.098Z,4.96
2023-04-21T02:44:12.743Z,4.98
2023-04-21T02:46:42.748Z,4.95
2023-04-21T02:49:12.418Z,4.99
2023-04-21T02:51:39.066Z,4.97
2023-04-21T02:54:05.968Z,5.03
2023-04-21T02:56:34.658Z,5.02
2023-04-21T02:59:01.381Z,5.03
2023-04-21T03:01:28.260Z,4.96
2023-04-21T03:03:54.878Z,4.93
2023-04-21T03:06:21.546Z,4.94
2023-04-21T03:08:48.140Z,4.97
2023-04-21T03:11:15.026Z,4.99
2023-04-21T03:13:41.656Z,4.98
2023-04-21T03:16:08.324Z,4.97
2023-04-21T03:18:36.397Z,5.00
2023-04-21T03:21:03.243Z,5.01
2023-04-21T03:23:30.382Z,5.02
2023-04-21T03:25:57.224Z,4.97
2023-04-21T03:28:23.778Z,4.97
2023-04-21T03:30:51.911Z,4.94
2023-04-21T03:33:19.099Z,4.92
2023-04-21T03:35:45.950Z,4.86
2023-04-21T03:38:12.810Z,4.87
2023-04-21T03:40:39.351Z,4.89
2023-04-21T03:43:06.674Z,4.88
2023-04-21T03:45:35.992Z,4.89
2023-04-21T03:48:03.652Z,4.90
2023-04-21T03:50:30.823Z,4.91
2023-04-21T03:55:23.994Z,4.95
2023-04-21T03:57:50.538Z,5.01
2023-04-21T04:00:17.153Z,4.92
2023-04-21T04:02:45.182Z,4.77
2023-04-21T04:05:12.126Z,4.66
2023-04-21T04:07:38.796Z,4.56
2023-04-21T04:10:05.849Z,4.49
2023-04-21T04:12:32.396Z,4.39
2023-04-21T04:14:59.070Z,4.32
2023-04-21T04:17:25.870Z,4.26
2023-04-21T04:19:52.567Z,4.17
2023-04-21T04:22:19.062Z,4.14
2023-04-21T04:24:45.753Z,4.13
2023-04-21T04:27:14.142Z,4.09
2023-04-21T04:29:41.143Z,4.07
2023-04-21T04:32:11.373Z,4.01
2023-04-21T04:34:38.202Z,3.98
2023-04-21T04:37:04.937Z,3.97
2023-04-21T04:39:32.270Z,3.93
2023-04-21T04:41:59.362Z,3.93
2023-04-21T04:44:26.014Z,3.94
2023-04-21T04:46:52.816Z,3.94
2023-04-21T04:49:19.745Z,3.95
2023-04-21T04:51:47.307Z,3.99
2023-04-21T04:54:14.071Z,3.98
2023-04-21T04:56:40.693Z,3.98
2023-04-21T04:59:07.516Z,4.00
2023-04-21T05:01:34.350Z,4.00
2023-04-21T05:04:01.140Z,3.99
2023-04-21T05:06:28.712Z,4.01
2023-04-21T05:08:56.116Z,4.02
2023-04-21T05:11:23.388Z,4.03
2023-04-21T05:13:50.009Z,4.04
2023-04-21T05:16:16.815Z,4.09
2023-04-21T05:18:43.566Z,4.16
2023-04-21T05:21:10.330Z,4.18
2023-04-21T05:23:37.016Z,4.21
2023-04-21T05:26:04.684Z,4.23
2023-04-21T05:28:32.050Z,4.30
2023-04-21T05:30:58.845Z,4.39
2023-04-21T05:33:27.083Z,4.41
2023-04-21T05:35:53.653Z,4.50
2023-04-21T05:38:20.201Z,4.52
2023-04-21T05:40:54.124Z,4.57
2023-04-21T05:43:21.030Z,4.61
2023-04-21T05:45:48.105Z,4.68
2023-04-21T05:48:14.853Z,4.75
2023-04-21T05:50:41.493Z,4.79
2023-04-21T05:53:10.741Z,4.83
2023-04-21T05:55:37.897Z,4.88
2023-04-21T05:58:05.362Z,4.97
2023-04-21T06:00:32.029Z,5.05
2023-04-21T06:02:58.784Z,5.12
2023-04-21T06:05:25.911Z,5.12
2023-04-21T06:07:52.743Z,5.19
2023-04-21T06:10:19.595Z,5.34
2023-04-21T06:12:46.187Z,5.44
2023-04-21T06:15:13.088Z,5.56
2023-04-21T06:17:39.703Z,5.65
2023-04-21T06:20:08.019Z,5.78
2023-04-21T06:22:34.618Z,5.70
2023-04-21T06:25:01.218Z,5.76
2023-04-21T06:27:27.959Z,5.93
2023-04-21T06:29:56.194Z,5.99
2023-04-21T06:32:23.067Z,6.07
2023-04-21T06:34:49.634Z,6.06
2023-04-21T06:37:16.469Z,6.13
2023-04-21T06:39:43.278Z,6.23
2023-04-21T06:42:10.016Z,6.40
2023-04-21T06:44:42.265Z,6.42
2023-04-21T06:47:08.905Z,6.62
2023-04-21T06:49:37.349Z,6.63
2023-04-21T06:52:04.550Z,6.63
2023-04-21T06:54:31.166Z,6.77
2023-04-21T06:56:57.994Z,6.85
2023-04-21T06:59:24.638Z,6.95
2023-04-21T07:01:52.422Z,6.83
2023-04-21T07:04:19.730Z,7.04
2023-04-21T07:06:47.089Z,7.08
2023-04-21T07:09:13.776Z,7.33
2023-04-21T07:11:40.669Z,7.79
2023-04-21T07:14:07.460Z,7.96
2023-04-21T07:16:34.107Z,8.06
2023-04-21T07:19:00.832Z,8.21
2023-04-21T07:21:27.489Z,8.76
2023-04-21T07:23:54.054Z,8.87
2023-04-21T07:26:20.990Z,9.60
2023-04-21T07:28:47.619Z,9.98
2023-04-21T07:31:14.201Z,9.45
2023-04-21T07:33:40.969Z,9.48
2023-04-21T07:36:07.802Z,9.10
2023-04-21T07:38:34.826Z,8.62
2023-04-21T07:41:01.508Z,8.67
2023-04-21T07:43:30.292Z,8.67
2023-04-21T07:45:57.881Z,9.12
2023-04-21T07:48:24.564Z,8.76
2023-04-21T07:50:51.308Z,8.80
2023-04-21T07:53:17.936Z,8.51
2023-04-21T07:55:44.530Z,8.76
2023-04-21T07:58:11.231Z,9.11
2023-04-21T08:00:37.856Z,9.68
2023-04-21T08:03:04.565Z,10.22
2023-04-21T08:05:35.019Z,10.39
2023-04-21T08:08:04.878Z,10.19
2023-04-21T08:10:46.613Z,10.07
2023-04-21T08:13:13.275Z,10.14
2023-04-21T08:15:39.816Z,10.14
2023-04-21T08:18:06.967Z,10.08
2023-04-21T08:20:33.623Z,10.06
2023-04-21T08:23:00.594Z,9.67
2023-04-21T08:25:27.211Z,9.44
2023-04-21T08:27:53.990Z,9.65
2023-04-21T08:30:20.743Z,10.18
2023-04-21T08:32:47.335Z,10.27
2023-04-21T08:35:14.304Z,9.83
2023-04-21T08:37:41.733Z,10.33
2023-04-21T08:40:08.759Z,9.99
2023-04-21T08:42:36.939Z,9.77
2023-04-21T08:45:04.116Z,10.13
2023-04-21T08:47:33.118Z,10.26
2023-04-21T08:49:59.774Z,10.48
2023-04-21T08:52:26.472Z,10.61
2023-04-21T08:54:53.279Z,10.61
2023-04-21T08:57:19.965Z,10.74
2023-04-21T08:59:46.727Z,10.58
2023-04-21T09:02:18.825Z,10.70
2023-04-21T09:04:51.689Z,10.58
2023-04-21T09:07:32.206Z,10.79
2023-04-21T09:10:00.724Z,10.80
2023-04-21T09:12:28.104Z,10.87
2023-04-21T09:14:55.301Z,10.78
2023-04-21T09:17:27.424Z,10.64
2023-04-21T09:19:55.292Z,10.54
2023-04-21T09:22:27.473Z,10.65
2023-04-21T09:25:00.383Z,10.65
2023-04-21T09:27:28.379Z,11.00
2023-04-21T09:29:55.739Z,11.29
2023-04-21T09:32:22.704Z,11.56
2023-04-21T09:34:49.512Z,11.56
2023-04-21T09:37:18.762Z,11.53
2023-04-21T09:40:03.357Z,11.21
2023-04-21T09:42:34.988Z,11.46
2023-04-21T09:45:16.815Z,11.42
2023-04-21T09:47:51.998Z,11.67
2023-04-21T09:50:33.430Z,11.88
2023-04-21T09:53:09.761Z,11.91
2023-04-21T09:55:36.931Z,12.02
2023-04-21T09:58:07.002Z,11.43
2023-04-21T10:00:39.251Z,11.71
2023-04-21T10:03:10.559Z,11.96
2023-04-21T10:05:42.069Z,12.05
2023-04-21T10:08:11.521Z,12.17
2023-04-21T10:10:39.728Z,12.34
2023-04-21T10:13:07.414Z,12.75
2023-04-21T10:15:41.912Z,13.21
2023-04-21T10:18:23.270Z,13.64
2023-04-21T10:20:53.472Z,13.90
2023-04-21T10:23:36.647Z,14.28
2023-04-21T10:26:06.133Z,14.85
2023-04-21T10:28:40.954Z,15.06
2023-04-21T10:31:16.832Z,15.65
2023-04-21T10:34:06.698Z,15.26
2023-04-21T10:36:43.495Z,15.06
2023-04-21T10:39:13.192Z,15.76
2023-04-21T10:41:39.906Z,15.74
2023-04-21T10:44:16.390Z,15.67
2023-04-21T10:46:52.192Z,15.75
2023-04-21T10:49:32.207Z,15.33
2023-04-21T10:51:58.842Z,15.71
2023-04-21T10:54:45.584Z,16.45
2023-04-21T10:57:15.400Z,16.65
2023-04-21T10:59:42.464Z,16.78
2023-04-21T11:02:12.473Z,17.67
2023-04-21T11:04:48.021Z,17.61
2023-04-21T11:07:18.912Z,18.15
2023-04-21T11:09:47.729Z,18.76
2023-04-21T11:12:18.156Z,19.71
2023-04-21T11:14:47.977Z,20.45
2023-04-21T11:17:16.910Z,21.11
2023-04-21T11:19:54.278Z,21.22
2023-04-21T11:22:26.992Z,21.73
2023-04-21T11:24:55.445Z,22.37
2023-04-21T11:27:22.620Z,21.59
2023-04-21T11:29:50.679Z,21.88
2023-04-21T11:32:18.064Z,22.19
2023-04-21T11:34:45.741Z,22.22
2023-04-21T11:37:17.500Z,22.55
2023-04-21T11:39:44.381Z,23.08
2023-04-21T11:42:11.953Z,23.54
2023-04-21T11:44:41.812Z,23.69
2023-04-21T11:47:19.912Z,23.81
2023-04-21T11:49:47.856Z,23.98
2023-04-21T11:52:45.459Z,24.18
2023-04-21T11:55:17.899Z,23.69
2023-04-21T11:57:44.813Z,23.08
2023-04-21T12:00:15.926Z,23.95
2023-04-21T12:02:43.910Z,24.13
2023-04-21T12:05:13.244Z,23.84
2023-04-21T12:07:45.007Z,24.19
2023-04-21T12:10:13.364Z,24.76
2023-04-21T12:12:41.222Z,24.83
2023-04-21T12:15:09.661Z,24.85
2023-04-21T12:17:51.054Z,25.42
2023-04-21T12:20:19.734Z,25.83
2023-04-21T12:22:46.770Z,26.64
2023-04-21T12:25:13.930Z,26.10
2023-04-21T12:27:51.227Z,24.44
2023-04-21T12:30:18.981Z,25.38
2023-04-21T12:32:45.915Z,26.56
2023-04-21T12:35:12.465Z,26.23
2023-04-21T12:37:39.449Z,26.74
2023-04-21T12:40:07.957Z,26.66
2023-04-21T12:42:37.300Z,26.08
2023-04-21T12:45:05.372Z,25.92
2023-04-21T12:47:32.414Z,26.06
2023-04-21T12:49:59.153Z,26.17
2023-04-21T12:52:26.945Z,26.74
2023-04-21T12:54:53.690Z,27.30
2023-04-21T12:57:21.467Z,27.23
2023-04-21T12:59:48.646Z,27.31
2023-04-21T13:02:15.743Z,27.08
2023-04-21T13:04:42.694Z,28.09
2023-04-21T13:07:09.814Z,28.58
2023-04-21T13:09:36.595Z,28.76
2023-04-21T13:12:03.330Z,29.75
2023-04-21T13:14:30.392Z,29.09
2023-04-21T13:16:57.334Z,29.20
2023-04-21T13:19:24.114Z,29.64
2023-04-21T13:21:53.855Z,28.73
2023-04-21T13:24:21.502Z,28.23
2023-04-21T13:26:48.108Z,28.06
2023-04-21T13:29:14.788Z,28.36
2023-04-21T13:31:41.508Z,29.39
2023-04-21T13:34:08.400Z,29.40
2023-04-21T13:36:35.387Z,28.50
2023-04-21T13:39:02.224Z,28.67
2023-04-21T13:41:28.919Z,28.51
2023-04-21T13:43:56.256Z,28.32
2023-04-21T13:46:23.080Z,28.73
2023-04-21T13:48:51.752Z,28.96
2023-04-21T13:51:19.336Z,28.95
2023-04-21T13:53:46.257Z,28.61
2023-04-21T13:56:14.085Z,28.49
2023-04-21T13:58:41.878Z,28.20
2023-04-21T14:01:09.191Z,29.78
2023-04-21T14:03:36.266Z,28.88
2023-04-21T14:06:03.237Z,29.35
2023-04-21T14:08:30.281Z,29.33
2023-04-21T14:10:57.631Z,29.41
2023-04-21T14:16:00.509Z,30.07
2023-04-21T14:18:27.176Z,29.89
2023-04-21T14:20:53.743Z,30.42
2023-04-21T14:23:20.271Z,29.74
2023-04-21T14:25:47.212Z,30.27
2023-04-21T14:28:14.535Z,29.91
2023-04-21T14:30:42.917Z,30.48
2023-04-21T14:33:09.614Z,28.75
2023-04-21T14:35:37.601Z,28.72
2023-04-21T14:38:04.325Z,29.39
2023-04-21T14:40:30.905Z,29.77
2023-04-21T14:42:57.635Z,30.20
2023-04-21T14:45:24.349Z,29.56
2023-04-21T14:47:51.179Z,29.21
2023-04-21T14:50:17.925Z,28.64
2023-04-21T14:52:45.292Z,28.49
2023-04-21T14:55:11.835Z,28.61
2023-04-21T14:57:38.469Z,29.64
2023-04-21T15:00:06.747Z,30.13
2023-04-21T15:02:33.477Z,29.07
2023-04-21T15:05:01.508Z,29.20
2023-04-21T15:07:28.157Z,28.51
2023-04-21T15:09:55.439Z,29.38
2023-04-21T15:12:22.228Z,29.68
2023-04-21T15:14:48.937Z,29.02
2023-04-21T15:17:15.593Z,28.75
2023-04-21T15:19:42.232Z,28.53
2023-04-21T15:22:08.842Z,26.85
2023-04-21T15:24:35.605Z,26.28
2023-04-21T15:27:02.523Z,26.73
2023-04-21T15:29:29.279Z,27.12
2023-04-21T15:31:56.101Z,27.46
2023-04-21T15:34:23.065Z,28.10
2023-04-21T15:36:49.669Z,28.01
2023-04-21T15:39:16.387Z,27.37
2023-04-21T15:41:42.997Z,26.58
2023-04-21T15:44:10.776Z,26.67
2023-04-21T15:46:37.585Z,27.38
2023-04-21T15:49:04.249Z,27.64
2023-04-21T15:51:33.391Z,26.41
2023-04-21T15:53:59.983Z,26.46
2023-04-21T15:56:27.009Z,25.51
2023-04-21T15:58:53.782Z,24.70
2023-04-21T16:01:21.723Z,24.42
2023-04-21T16:03:49.264Z,23.91
2023-04-21T16:06:16.870Z,23.75
2023-04-21T16:11:10.562Z,22.98
2023-04-21T16:13:37.349Z,21.91
2023-04-21T16:16:04.061Z,21.23
2023-04-21T16:18:30.989Z,21.29
2023-04-21T16:20:58.014Z,21.02
2023-04-21T16:23:25.300Z,20.44
2023-04-21T16:25:51.963Z,20.29
2023-04-21T16:28:18.554Z,20.43
2023-04-21T16:30:45.513Z,20.07
2023-04-21T16:33:13.220Z,19.88
2023-04-21T16:35:40.397Z,19.70
2023-04-21T16:38:10.094Z,19.47
2023-04-21T16:40:36.833Z,19.57
2023-04-21T16:43:03.537Z,19.47
2023-04-21T16:45:31.563Z,19.13
2023-04-21T16:47:58.843Z,19.00
2023-04-21T16:50:25.897Z,18.94
2023-04-21T16:52:52.887Z,18.78
2023-04-21T16:55:19.711Z,18.48
2023-04-21T16:57:46.379Z,18.28
2023-04-21T17:00:13.946Z,17.99
2023-04-21T17:02:40.638Z,17.86
2023-04-21T17:05:07.800Z,17.77
2023-04-21T17:07:35.320Z,17.70
2023-04-21T17:10:01.922Z,18.05
2023-04-21T17:12:28.527Z,18.44
2023-04-21T17:14:55.225Z,18.09
2023-04-21T17:17:22.109Z,17.73
2023-04-21T17:19:48.899Z,17.38
2023-04-21T17:22:15.746Z,17.22
2023-04-21T17:24:52.391Z,16.92
2023-04-21T17:27:19.910Z,16.73
2023-04-21T17:29:46.881Z,16.64
2023-04-21T17:32:14.247Z,16.53
2023-04-21T17:34:40.991Z,16.41
2023-04-21T17:37:07.742Z,16.29
2023-04-21T17:39:34.525Z,16.19
2023-04-21T17:42:02.594Z,16.15
2023-04-21T17:44:29.338Z,16.08
2023-04-21T17:46:56.698Z,15.94
2023-04-21T17:49:24.845Z,15.84
2023-04-21T17:51:52.001Z,15.80
2023-04-21T17:54:18.920Z,15.71
2023-04-21T17:56:46.196Z,15.47
2023-04-21T17:59:13.359Z,15.30
2023-04-21T18:01:40.282Z,15.10
2023-04-21T18:04:07.348Z,14.83
2023-04-21T18:06:34.868Z,14.66
2023-04-21T18:09:01.733Z,14.56
2023-04-21T18:11:28.545Z,14.44
2023-04-21T18:13:55.413Z,14.33
2023-04-21T18:16:22.289Z,13.92
2023-04-21T18:18:50.070Z,13.64
2023-04-21T18:21:17.017Z,13.41
2023-04-21T18:23:43.962Z,13.45
2023-04-21T18:26:10.894Z,13.37
2023-04-21T18:28:37.800Z,13.46
2023-04-21T18:31:04.517Z,13.69
2023-04-21T18:33:31.314Z,13.66
2023-04-21T18:35:58.102Z,13.71
2023-04-21T18:38:24.681Z,13.66
2023-04-21T18:40:51.427Z,13.50
2023-04-21T18:43:18.069Z,13.40
2023-04-21T18:45:44.624Z,13.53
2023-04-21T18:48:11.391Z,13.32
2023-04-21T18:50:40.327Z,13.36
2023-04-21T18:53:08.461Z,13.52
2023-04-21T18:55:36.301Z,13.26
2023-04-21T18:58:03.712Z,13.22
2023-04-21T19:00:32.091Z,13.06
2023-04-21T19:03:03.741Z,13.36
2023-04-21T19:05:31.871Z,13.10
2023-04-21T19:07:58.710Z,12.87
2023-04-21T19:10:26.233Z,12.84
2023-04-21T19:12:53.206Z,12.92
2023-04-21T19:15:20.988Z,12.86
2023-04-21T19:17:47.677Z,12.74
2023-04-21T19:20:14.382Z,12.68
2023-04-21T19:22:41.762Z,12.60
2023-04-21T19:25:08.723Z,12.66
2023-04-21T19:27:36.139Z,12.59
2023-04-21T19:30:03.746Z,12.50
2023-04-21T19:32:30.853Z,12.48
2023-04-21T19:34:57.810Z,12.42
2023-04-21T19:37:26.443Z,12.41
2023-04-21T19:39:53.386Z,12.54
2023-04-21T19:42:20.105Z,12.54
2023-04-21T19:44:46.674Z,12.38
2023-04-21T19:47:13.776Z,12.47
2023-04-21T19:49:40.486Z,12.55
2023-04-21T19:52:07.248Z,12.48
2023-04-21T19:54:33.978Z,12.58
2023-04-21T19:57:01.395Z,12.48
2023-04-21T19:59:28.334Z,12.38
2023-04-21T20:01:54.947Z,12.23
2023-04-21T20:04:21.739Z,12.18
2023-04-21T20:06:48.814Z,12.10
2023-04-21T20:09:16.034Z,12.04
2023-04-21T20:11:43.327Z,11.94
2023-04-21T20:14:09.944Z,11.84
2023-04-21T20:16:36.909Z,11.79
2023-04-21T20:19:04.630Z,11.66
2023-04-21T20:21:32.447Z,11.50
2023-04-21T20:23:59.242Z,11.49
2023-04-21T20:26:25.945Z,11.48
2023-04-21T20:28:52.707Z,11.45
2023-04-21T20:31:23.646Z,11.35
2023-04-21T20:33:50.613Z,11.30
2023-04-21T20:36:17.813Z,11.22
2023-04-21T20:38:46.248Z,11.21
2023-04-21T20:41:13.440Z,11.15
2023-04-21T20:43:40.490Z,11.06
2023-04-21T20:46:08.816Z,10.97
2023-04-21T20:48:35.553Z,10.89
2023-04-21T20:51:02.808Z,10.88
2023-04-21T20:53:29.356Z,10.81
2023-04-21T20:55:56.113Z,10.71
2023-04-21T20:58:24.371Z,10.70
2023-04-21T21:00:51.083Z,10.76
2023-04-21T21:03:20.448Z,10.66
2023-04-21T21:05:47.938Z,10.57
2023-04-21T21:08:15.161Z,10.50
2023-04-21T21:10:41.909Z,10.37
2023-04-21T21:13:08.714Z,10.32
2023-04-21T21:15:35.531Z,10.23
2023-04-21T21:18:02.525Z,10.17
2023-04-21T21:20:29.549Z,10.15
2023-04-21T21:22:56.196Z,10.15
2023-04-21T21:25:22.865Z,10.05
2023-04-21T21:27:49.983Z,9.97
2023-04-21T21:30:16.659Z,9.94
2023-04-21T21:32:43.570Z,9.83
2023-04-21T21:35:12.061Z,9.87
2023-04-21T21:37:39.603Z,9.89
2023-04-21T21:40:07.185Z,9.89
2023-04-21T21:42:33.862Z,9.87
2023-04-21T21:45:01.166Z,9.88
2023-04-21T21:47:27.852Z,9.82
2023-04-21T21:49:56.113Z,9.74
2023-04-21T21:52:22.772Z,9.70
2023-04-21T21:54:49.418Z,9.66
2023-04-21T21:57:16.801Z,9.61
2023-04-21T21:59:43.936Z,9.52
2023-04-21T22:02:10.729Z,9.40
2023-04-21T22:04:38.039Z,9.41
2023-04-21T22:07:05.141Z,9.34
2023-04-21T22:09:31.807Z,9.30
2023-04-21T22:11:58.611Z,9.15
2023-04-21T22:14:25.396Z,9.10
2023-04-21T22:16:52.587Z,9.07
2023-04-21T22:19:19.432Z,9.19
2023-04-21T22:21:46.254Z,9.13
2023-04-21T22:24:13.352Z,9.26
2023-04-21T22:26:40.056Z,9.06
2023-04-21T22:29:07.008Z,8.92
2023-04-21T22:31:33.893Z,8.88
2023-04-21T22:34:01.455Z,8.79
2023-04-21T22:36:28.375Z,8.71
2023-04-21T22:38:54.929Z,8.66
2023-04-21T22:41:21.659Z,8.36
2023-04-21T22:43:48.262Z,8.25
2023-04-21T22:46:15.333Z,8.09
2023-04-21T22:48:41.988Z,8.12
2023-04-21T22:51:08.865Z,8.21
2023-04-21T22:53:35.509Z,8.33
2023-04-21T22:56:02.356Z,8.59
2023-04-21T22:58:29.015Z,8.73
2023-04-21T23:00:55.613Z,8.85
2023-04-21T23:03:23.179Z,9.02
2023-04-21T23:05:49.934Z,9.05
2023-04-21T23:08:16.704Z,9.05
2023-04-21T23:10:43.398Z,9.02
2023-04-21T23:13:10.244Z,9.02
2023-04-21T23:15:36.809Z,8.97
2023-04-21T23:18:03.564Z,9.01
2023-04-21T23:20:31.176Z,8.97
2023-04-21T23:22:58.014Z,8.91
2023-04-21T23:25:24.852Z,8.85
2023-04-21T23:27:51.426Z,8.77
2023-04-21T23:30:18.165Z,8.67
2023-04-21T23:32:45.425Z,8.57
2023-04-21T23:35:12.164Z,8.45
2023-04-21T23:37:39.030Z,8.31
2023-04-21T23:40:09.128Z,8.17
2023-04-21T23:42:36.279Z,8.04
2023-04-21T23:45:04.280Z,7.91
2023-04-21T23:47:31.084Z,7.76
2023-04-21T23:49:58.155Z,7.71
2023-04-21T23:52:25.042Z,7.60
2023-04-21T23:54:51.801Z,7.56
2023-04-21T23:57:18.675Z,7.53
2023-04-21T23:59:45.900Z,7.40
